sensor_id;sensor_type;location;lat;lon;timestamp;P1;durP1;ratioP1;P2;durP2;ratioP2
66163;SDS011;52962;51.088;3.096;2022-09-29T00:00:34;1.40;;;0.35;;
66163;SDS011;52962;51.088;3.096;2022-09-29T00:03:02;1.05;;;0.30;;
66163;SDS011;52962;51.088;3.096;2022-09-29T00:05:30;0.40;;;0.40;;
66163;SDS011;52962;51.088;3.096;2022-09-29T00:07:59;0.30;;;0.30;;
66163;SDS011;52962;51.088;3.096;2022-09-29T00:10:27;2.17;;;0.40;;
66163;SDS011;52962;51.088;3.096;2022-09-29T00:12:55;0.60;;;0.40;;
66163;SDS011;52962;51.088;3.096;2022-09-29T00:15:23;0.60;;;0.50;;
66163;SDS011;52962;51.088;3.096;2022-09-29T00:17:52;2.17;;;0.60;;
66163;SDS011;52962;51.088;3.096;2022-09-29T00:20:39;0.50;;;0.50;;
66163;SDS011;52962;51.088;3.096;2022-09-29T00:23:06;0.50;;;0.50;;
66163;SDS011;52962;51.088;3.096;2022-09-29T00:25:34;0.70;;;0.60;;
66163;SDS011;52962;51.088;3.096;2022-09-29T00:28:02;3.35;;;0.77;;
66163;SDS011;52962;51.088;3.096;2022-09-29T00:30:30;1.45;;;0.77;;
66163;SDS011;52962;51.088;3.096;2022-09-29T00:32:59;0.73;;;0.57;;
66163;SDS011;52962;51.088;3.096;2022-09-29T00:35:27;0.88;;;0.70;;
66163;SDS011;52962;51.088;3.096;2022-09-29T00:37:56;0.73;;;0.55;;
66163;SDS011;52962;51.088;3.096;2022-09-29T00:40:24;1.95;;;0.65;;
66163;SDS011;52962;51.088;3.096;2022-09-29T00:42:51;1.27;;;0.80;;
66163;SDS011;52962;51.088;3.096;2022-09-29T00:45:19;1.95;;;0.70;;
66163;SDS011;52962;51.088;3.096;2022-09-29T00:47:50;1.05;;;0.90;;
66163;SDS011;52962;51.088;3.096;2022-09-29T00:50:27;0.65;;;0.65;;
66163;SDS011;52962;51.088;3.096;2022-09-29T00:53:05;0.82;;;0.68;;
66163;SDS011;52962;51.088;3.096;2022-09-29T00:55:40;0.60;;;0.60;;
66163;SDS011;52962;51.088;3.096;2022-09-29T00:58:12;0.70;;;0.70;;
66163;SDS011;52962;51.088;3.096;2022-09-29T01:00:45;1.10;;;0.50;;
66163;SDS011;52962;51.088;3.096;2022-09-29T01:03:14;0.82;;;0.80;;
66163;SDS011;52962;51.088;3.096;2022-09-29T01:05:49;1.77;;;0.88;;
66163;SDS011;52962;51.088;3.096;2022-09-29T01:08:22;0.70;;;0.70;;
66163;SDS011;52962;51.088;3.096;2022-09-29T01:10:54;1.33;;;1.10;;
66163;SDS011;52962;51.088;3.096;2022-09-29T01:13:23;1.35;;;0.90;;
66163;SDS011;52962;51.088;3.096;2022-09-29T01:15:51;2.10;;;0.63;;
66163;SDS011;52962;51.088;3.096;2022-09-29T01:18:19;3.65;;;0.90;;
66163;SDS011;52962;51.088;3.096;2022-09-29T01:20:50;1.42;;;0.75;;
66163;SDS011;52962;51.088;3.096;2022-09-29T01:23:35;1.85;;;0.90;;
66163;SDS011;52962;51.088;3.096;2022-09-29T01:26:24;1.02;;;0.80;;
66163;SDS011;52962;51.088;3.096;2022-09-29T01:29:24;1.35;;;1.00;;
66163;SDS011;52962;51.088;3.096;2022-09-29T01:32:10;0.73;;;0.65;;
66163;SDS011;52962;51.088;3.096;2022-09-29T01:34:47;1.13;;;1.02;;
66163;SDS011;52962;51.088;3.096;2022-09-29T01:37:28;0.75;;;0.75;;
66163;SDS011;52962;51.088;3.096;2022-09-29T01:40:06;0.70;;;0.70;;
66163;SDS011;52962;51.088;3.096;2022-09-29T01:42:42;1.20;;;1.10;;
66163;SDS011;52962;51.088;3.096;2022-09-29T01:45:21;2.47;;;0.90;;
66163;SDS011;52962;51.088;3.096;2022-09-29T01:47:58;2.47;;;0.70;;
66163;SDS011;52962;51.088;3.096;2022-09-29T01:53:02;1.23;;;0.68;;
66163;SDS011;52962;51.088;3.096;2022-09-29T01:55:34;1.17;;;0.80;;
66163;SDS011;52962;51.088;3.096;2022-09-29T01:58:08;1.42;;;0.90;;
66163;SDS011;52962;51.088;3.096;2022-09-29T02:00:40;1.42;;;0.80;;
66163;SDS011;52962;51.088;3.096;2022-09-29T02:03:14;1.02;;;0.95;;
66163;SDS011;52962;51.088;3.096;2022-09-29T02:05:46;1.00;;;0.77;;
66163;SDS011;52962;51.088;3.096;2022-09-29T02:08:18;1.23;;;0.50;;
66163;SDS011;52962;51.088;3.096;2022-09-29T02:10:52;1.13;;;0.93;;
66163;SDS011;52962;51.088;3.096;2022-09-29T02:13:25;0.70;;;0.70;;
66163;SDS011;52962;51.088;3.096;2022-09-29T02:15:57;0.80;;;0.73;;
66163;SDS011;52962;51.088;3.096;2022-09-29T02:18:29;1.85;;;0.80;;
66163;SDS011;52962;51.088;3.096;2022-09-29T02:21:02;0.88;;;0.85;;
66163;SDS011;52962;51.088;3.096;2022-09-29T02:23:30;1.63;;;0.82;;
66163;SDS011;52962;51.088;3.096;2022-09-29T02:25:58;1.17;;;0.82;;
66163;SDS011;52962;51.088;3.096;2022-09-29T02:28:27;1.00;;;0.90;;
66163;SDS011;52962;51.088;3.096;2022-09-29T02:30:55;0.85;;;0.80;;
66163;SDS011;52962;51.088;3.096;2022-09-29T02:33:23;0.95;;;0.75;;
66163;SDS011;52962;51.088;3.096;2022-09-29T02:36:03;0.95;;;0.70;;
66163;SDS011;52962;51.088;3.096;2022-09-29T02:38:41;3.50;;;0.90;;
66163;SDS011;52962;51.088;3.096;2022-09-29T02:41:17;0.68;;;0.68;;
66163;SDS011;52962;51.088;3.096;2022-09-29T02:44:03;0.50;;;0.50;;
66163;SDS011;52962;51.088;3.096;2022-09-29T02:46:55;1.88;;;0.60;;
66163;SDS011;52962;51.088;3.096;2022-09-29T02:49:39;2.55;;;0.60;;
66163;SDS011;52962;51.088;3.096;2022-09-29T02:52:23;0.60;;;0.60;;
66163;SDS011;52962;51.088;3.096;2022-09-29T02:55:01;0.80;;;0.70;;
66163;SDS011;52962;51.088;3.096;2022-09-29T02:57:37;0.75;;;0.75;;
66163;SDS011;52962;51.088;3.096;2022-09-29T03:00:13;0.60;;;0.60;;
66163;SDS011;52962;51.088;3.096;2022-09-29T03:02:43;1.05;;;0.70;;
66163;SDS011;52962;51.088;3.096;2022-09-29T03:05:12;0.52;;;0.52;;
66163;SDS011;52962;51.088;3.096;2022-09-29T03:07:43;0.98;;;0.93;;
66163;SDS011;52962;51.088;3.096;2022-09-29T03:10:11;2.28;;;0.75;;
66163;SDS011;52962;51.088;3.096;2022-09-29T03:12:41;1.23;;;0.70;;
66163;SDS011;52962;51.088;3.096;2022-09-29T03:15:09;0.80;;;0.70;;
66163;SDS011;52962;51.088;3.096;2022-09-29T03:17:38;0.80;;;0.80;;
66163;SDS011;52962;51.088;3.096;2022-09-29T03:20:06;2.58;;;0.50;;
66163;SDS011;52962;51.088;3.096;2022-09-29T03:22:35;0.55;;;0.52;;
66163;SDS011;52962;51.088;3.096;2022-09-29T03:27:33;0.55;;;0.55;;
66163;SDS011;52962;51.088;3.096;2022-09-29T03:30:04;0.80;;;0.80;;
66163;SDS011;52962;51.088;3.096;2022-09-29T03:32:32;0.52;;;0.40;;
66163;SDS011;52962;51.088;3.096;2022-09-29T03:35:00;0.55;;;0.55;;
66163;SDS011;52962;51.088;3.096;2022-09-29T03:37:28;0.70;;;0.40;;
66163;SDS011;52962;51.088;3.096;2022-09-29T03:39:56;0.57;;;0.55;;
66163;SDS011;52962;51.088;3.096;2022-09-29T03:42:26;0.52;;;0.52;;
66163;SDS011;52962;51.088;3.096;2022-09-29T03:44:53;0.68;;;0.60;;
66163;SDS011;52962;51.088;3.096;2022-09-29T03:47:22;2.05;;;0.60;;
66163;SDS011;52962;51.088;3.096;2022-09-29T03:52:18;0.68;;;0.55;;
66163;SDS011;52962;51.088;3.096;2022-09-29T03:54:46;0.57;;;0.57;;
66163;SDS011;52962;51.088;3.096;2022-09-29T03:57:14;0.85;;;0.70;;
66163;SDS011;52962;51.088;3.096;2022-09-29T03:59:43;0.95;;;0.80;;
66163;SDS011;52962;51.088;3.096;2022-09-29T04:02:11;1.25;;;0.73;;
66163;SDS011;52962;51.088;3.096;2022-09-29T04:09:35;0.68;;;0.60;;
66163;SDS011;52962;51.088;3.096;2022-09-29T04:12:03;1.70;;;0.85;;
66163;SDS011;52962;51.088;3.096;2022-09-29T04:14:31;1.42;;;0.90;;
66163;SDS011;52962;51.088;3.096;2022-09-29T04:17:00;1.38;;;1.15;;
66163;SDS011;52962;51.088;3.096;2022-09-29T04:19:28;1.60;;;1.10;;
66163;SDS011;52962;51.088;3.096;2022-09-29T04:21:56;0.88;;;0.88;;
66163;SDS011;52962;51.088;3.096;2022-09-29T04:24:24;1.30;;;1.10;;
66163;SDS011;52962;51.088;3.096;2022-09-29T04:26:52;1.13;;;1.00;;
66163;SDS011;52962;51.088;3.096;2022-09-29T04:29:20;1.15;;;0.80;;
66163;SDS011;52962;51.088;3.096;2022-09-29T04:31:48;0.60;;;0.60;;
66163;SDS011;52962;51.088;3.096;2022-09-29T04:34:17;0.88;;;0.77;;
66163;SDS011;52962;51.088;3.096;2022-09-29T04:36:45;0.73;;;0.50;;
66163;SDS011;52962;51.088;3.096;2022-09-29T04:39:13;0.85;;;0.75;;
66163;SDS011;52962;51.088;3.096;2022-09-29T04:41:42;0.70;;;0.70;;
66163;SDS011;52962;51.088;3.096;2022-09-29T04:44:10;0.93;;;0.70;;
66163;SDS011;52962;51.088;3.096;2022-09-29T04:46:37;1.13;;;0.63;;
66163;SDS011;52962;51.088;3.096;2022-09-29T04:49:05;0.80;;;0.80;;
66163;SDS011;52962;51.088;3.096;2022-09-29T04:51:35;0.50;;;0.50;;
66163;SDS011;52962;51.088;3.096;2022-09-29T04:54:03;0.88;;;0.65;;
66163;SDS011;52962;51.088;3.096;2022-09-29T04:56:31;0.60;;;0.52;;
66163;SDS011;52962;51.088;3.096;2022-09-29T04:58:59;1.95;;;0.60;;
66163;SDS011;52962;51.088;3.096;2022-09-29T05:01:27;0.57;;;0.57;;
66163;SDS011;52962;51.088;3.096;2022-09-29T05:03:55;0.57;;;0.50;;
66163;SDS011;52962;51.088;3.096;2022-09-29T05:06:23;0.60;;;0.60;;
66163;SDS011;52962;51.088;3.096;2022-09-29T05:08:52;0.60;;;0.60;;
66163;SDS011;52962;51.088;3.096;2022-09-29T05:11:21;0.80;;;0.68;;
66163;SDS011;52962;51.088;3.096;2022-09-29T05:13:48;0.50;;;0.50;;
66163;SDS011;52962;51.088;3.096;2022-09-29T05:16:16;1.75;;;0.50;;
66163;SDS011;52962;51.088;3.096;2022-09-29T05:18:44;0.30;;;0.30;;
66163;SDS011;52962;51.088;3.096;2022-09-29T05:21:12;0.75;;;0.38;;
66163;SDS011;52962;51.088;3.096;2022-09-29T05:23:55;0.50;;;0.50;;
66163;SDS011;52962;51.088;3.096;2022-09-29T05:26:23;0.88;;;0.70;;
66163;SDS011;52962;51.088;3.096;2022-09-29T05:28:51;0.47;;;0.47;;
66163;SDS011;52962;51.088;3.096;2022-09-29T05:31:19;0.40;;;0.40;;
66163;SDS011;52962;51.088;3.096;2022-09-29T05:33:47;0.38;;;0.30;;
66163;SDS011;52962;51.088;3.096;2022-09-29T05:36:15;0.85;;;0.30;;
66163;SDS011;52962;51.088;3.096;2022-09-29T05:38:43;0.35;;;0.32;;
66163;SDS011;52962;51.088;3.096;2022-09-29T05:41:12;0.40;;;0.40;;
66163;SDS011;52962;51.088;3.096;2022-09-29T05:43:41;2.85;;;0.60;;
66163;SDS011;52962;51.088;3.096;2022-09-29T05:46:09;0.63;;;0.57;;
66163;SDS011;52962;51.088;3.096;2022-09-29T05:48:37;0.88;;;0.55;;
66163;SDS011;52962;51.088;3.096;2022-09-29T05:51:06;0.65;;;0.52;;
66163;SDS011;52962;51.088;3.096;2022-09-29T05:53:35;0.77;;;0.57;;
66163;SDS011;52962;51.088;3.096;2022-09-29T05:56:04;1.13;;;0.63;;
66163;SDS011;52962;51.088;3.096;2022-09-29T05:58:35;0.50;;;0.50;;
66163;SDS011;52962;51.088;3.096;2022-09-29T06:01:04;0.90;;;0.90;;
66163;SDS011;52962;51.088;3.096;2022-09-29T06:03:33;1.52;;;0.90;;
66163;SDS011;52962;51.088;3.096;2022-09-29T06:06:05;0.63;;;0.63;;
66163;SDS011;52962;51.088;3.096;2022-09-29T06:08:34;0.80;;;0.80;;
66163;SDS011;52962;51.088;3.096;2022-09-29T06:11:03;0.60;;;0.60;;
66163;SDS011;52962;51.088;3.096;2022-09-29T06:13:32;1.85;;;0.80;;
66163;SDS011;52962;51.088;3.096;2022-09-29T06:16:02;0.77;;;0.77;;
66163;SDS011;52962;51.088;3.096;2022-09-29T06:18:30;0.77;;;0.77;;
66163;SDS011;52962;51.088;3.096;2022-09-29T06:21:01;1.00;;;0.80;;
66163;SDS011;52962;51.088;3.096;2022-09-29T06:23:29;1.00;;;0.80;;
66163;SDS011;52962;51.088;3.096;2022-09-29T06:25:58;1.17;;;0.75;;
66163;SDS011;52962;51.088;3.096;2022-09-29T06:28:27;0.75;;;0.70;;
66163;SDS011;52962;51.088;3.096;2022-09-29T06:33:27;1.42;;;1.10;;
66163;SDS011;52962;51.088;3.096;2022-09-29T06:35:55;1.35;;;0.93;;
66163;SDS011;52962;51.088;3.096;2022-09-29T06:38:41;1.58;;;1.00;;
66163;SDS011;52962;51.088;3.096;2022-09-29T06:41:09;1.33;;;1.23;;
66163;SDS011;52962;51.088;3.096;2022-09-29T06:43:37;1.00;;;0.93;;
66163;SDS011;52962;51.088;3.096;2022-09-29T06:46:05;1.65;;;1.10;;
66163;SDS011;52962;51.088;3.096;2022-09-29T06:48:34;2.08;;;1.30;;
66163;SDS011;52962;51.088;3.096;2022-09-29T06:51:05;1.90;;;1.08;;
66163;SDS011;52962;51.088;3.096;2022-09-29T06:53:35;1.33;;;1.23;;
66163;SDS011;52962;51.088;3.096;2022-09-29T06:56:05;3.80;;;1.33;;
66163;SDS011;52962;51.088;3.096;2022-09-29T06:58:34;1.63;;;1.30;;
66163;SDS011;52962;51.088;3.096;2022-09-29T07:01:03;2.00;;;1.35;;
66163;SDS011;52962;51.088;3.096;2022-09-29T07:03:32;1.95;;;1.60;;
66163;SDS011;52962;51.088;3.096;2022-09-29T07:06:02;3.03;;;1.95;;
66163;SDS011;52962;51.088;3.096;2022-09-29T07:08:46;2.90;;;1.50;;
66163;SDS011;52962;51.088;3.096;2022-09-29T07:11:14;2.05;;;1.50;;
66163;SDS011;52962;51.088;3.096;2022-09-29T07:18:40;1.45;;;1.35;;
66163;SDS011;52962;51.088;3.096;2022-09-29T07:21:09;3.05;;;2.10;;
66163;SDS011;52962;51.088;3.096;2022-09-29T07:23:41;1.85;;;1.63;;
66163;SDS011;52962;51.088;3.096;2022-09-29T07:26:09;3.35;;;1.80;;
66163;SDS011;52962;51.088;3.096;2022-09-29T07:28:37;2.22;;;1.65;;
66163;SDS011;52962;51.088;3.096;2022-09-29T07:31:06;0.10;;;0.10;;
66163;SDS011;52962;51.088;3.096;2022-09-29T07:33:42;1999.90;;;999.90;;
66163;SDS011;52962;51.088;3.096;2022-09-29T07:36:10;1.02;;;0.85;;
66163;SDS011;52962;51.088;3.096;2022-09-29T07:38:39;0.75;;;0.75;;
66163;SDS011;52962;51.088;3.096;2022-09-29T07:41:08;0.93;;;0.75;;
66163;SDS011;52962;51.088;3.096;2022-09-29T07:43:37;3.30;;;0.80;;
66163;SDS011;52962;51.088;3.096;2022-09-29T07:46:06;0.98;;;0.82;;
66163;SDS011;52962;51.088;3.096;2022-09-29T07:48:35;1.33;;;0.90;;
66163;SDS011;52962;51.088;3.096;2022-09-29T07:51:06;3.55;;;1.00;;
66163;SDS011;52962;51.088;3.096;2022-09-29T07:53:35;0.75;;;0.70;;
66163;SDS011;52962;51.088;3.096;2022-09-29T07:56:03;1.08;;;0.98;;
66163;SDS011;52962;51.088;3.096;2022-09-29T07:58:33;1.05;;;0.80;;
66163;SDS011;52962;51.088;3.096;2022-09-29T08:01:02;2.60;;;1.20;;
66163;SDS011;52962;51.088;3.096;2022-09-29T08:03:32;1.77;;;0.82;;
66163;SDS011;52962;51.088;3.096;2022-09-29T08:06:00;1.40;;;0.90;;
66163;SDS011;52962;51.088;3.096;2022-09-29T08:08:30;0.80;;;0.80;;
66163;SDS011;52962;51.088;3.096;2022-09-29T08:11:01;1.00;;;0.80;;
66163;SDS011;52962;51.088;3.096;2022-09-29T08:13:30;1.23;;;0.88;;
66163;SDS011;52962;51.088;3.096;2022-09-29T08:15:59;0.73;;;0.63;;
66163;SDS011;52962;51.088;3.096;2022-09-29T08:18:28;1.20;;;1.00;;
66163;SDS011;52962;51.088;3.096;2022-09-29T08:20:57;0.85;;;0.82;;
66163;SDS011;52962;51.088;3.096;2022-09-29T08:23:33;1.17;;;1.00;;
66163;SDS011;52962;51.088;3.096;2022-09-29T08:26:02;1.50;;;0.75;;
66163;SDS011;52962;51.088;3.096;2022-09-29T08:28:32;1.42;;;1.13;;
66163;SDS011;52962;51.088;3.096;2022-09-29T08:31:02;0.95;;;0.70;;
66163;SDS011;52962;51.088;3.096;2022-09-29T08:33:30;48.33;;;46.38;;
66163;SDS011;52962;51.088;3.096;2022-09-29T08:38:29;0.55;;;0.55;;
66163;SDS011;52962;51.088;3.096;2022-09-29T08:41:01;1.10;;;1.00;;
66163;SDS011;52962;51.088;3.096;2022-09-29T08:43:32;1.80;;;1.05;;
66163;SDS011;52962;51.088;3.096;2022-09-29T08:46:04;1.50;;;0.80;;
66163;SDS011;52962;51.088;3.096;2022-09-29T08:48:38;1.08;;;0.90;;
66163;SDS011;52962;51.088;3.096;2022-09-29T08:51:24;1.00;;;0.90;;
66163;SDS011;52962;51.088;3.096;2022-09-29T08:57:04;1.17;;;1.13;;
66163;SDS011;52962;51.088;3.096;2022-09-29T08:59:36;1.25;;;0.75;;
66163;SDS011;52962;51.088;3.096;2022-09-29T09:02:12;1.23;;;1.08;;
66163;SDS011;52962;51.088;3.096;2022-09-29T09:05:05;1.17;;;0.98;;
66163;SDS011;52962;51.088;3.096;2022-09-29T09:07:45;2.95;;;0.85;;
66163;SDS011;52962;51.088;3.096;2022-09-29T09:10:32;6.88;;;2.92;;
66163;SDS011;52962;51.088;3.096;2022-09-29T09:13:16;1.80;;;1.65;;
66163;SDS011;52962;51.088;3.096;2022-09-29T09:15:58;1.05;;;0.90;;
66163;SDS011;52962;51.088;3.096;2022-09-29T09:18:49;1.13;;;1.02;;
66163;SDS011;52962;51.088;3.096;2022-09-29T09:21:30;1.27;;;1.00;;
66163;SDS011;52962;51.088;3.096;2022-09-29T09:24:16;1.02;;;0.90;;
66163;SDS011;52962;51.088;3.096;2022-09-29T09:26:51;1.02;;;0.93;;
66163;SDS011;52962;51.088;3.096;2022-09-29T09:29:21;1.73;;;1.27;;
66163;SDS011;52962;51.088;3.096;2022-09-29T09:32:02;1.17;;;0.77;;
66163;SDS011;52962;51.088;3.096;2022-09-29T09:34:35;2.55;;;1.80;;
66163;SDS011;52962;51.088;3.096;2022-09-29T09:37:11;3.35;;;1.30;;
66163;SDS011;52962;51.088;3.096;2022-09-29T09:39:43;1.08;;;0.90;;
66163;SDS011;52962;51.088;3.096;2022-09-29T09:42:23;1.35;;;1.08;;
66163;SDS011;52962;51.088;3.096;2022-09-29T09:44:56;5.07;;;3.60;;
66163;SDS011;52962;51.088;3.096;2022-09-29T09:47:27;16.38;;;15.00;;
66163;SDS011;52962;51.088;3.096;2022-09-29T09:49:58;68.57;;;29.75;;
66163;SDS011;52962;51.088;3.096;2022-09-29T09:52:30;8.13;;;5.03;;
66163;SDS011;52962;51.088;3.096;2022-09-29T09:55:06;8.95;;;4.18;;
66163;SDS011;52962;51.088;3.096;2022-09-29T10:00:40;3.00;;;1.90;;
66163;SDS011;52962;51.088;3.096;2022-09-29T10:03:11;2.60;;;1.52;;
66163;SDS011;52962;51.088;3.096;2022-09-29T10:05:42;2.38;;;2.00;;
66163;SDS011;52962;51.088;3.096;2022-09-29T10:08:11;3.75;;;2.50;;
66163;SDS011;52962;51.088;3.096;2022-09-29T10:10:45;1.88;;;1.02;;
66163;SDS011;52962;51.088;3.096;2022-09-29T10:13:26;6.18;;;3.30;;
66163;SDS011;52962;51.088;3.096;2022-09-29T10:15:56;4.70;;;3.20;;
66163;SDS011;52962;51.088;3.096;2022-09-29T10:18:28;1.98;;;1.40;;
66163;SDS011;52962;51.088;3.096;2022-09-29T10:21:02;1.13;;;0.85;;
66163;SDS011;52962;51.088;3.096;2022-09-29T10:23:31;1.38;;;1.13;;
66163;SDS011;52962;51.088;3.096;2022-09-29T10:26:01;1.92;;;1.05;;
66163;SDS011;52962;51.088;3.096;2022-09-29T10:31:18;1.27;;;1.13;;
66163;SDS011;52962;51.088;3.096;2022-09-29T10:33:49;2.70;;;0.80;;
66163;SDS011;52962;51.088;3.096;2022-09-29T10:36:19;3.00;;;0.70;;
66163;SDS011;52962;51.088;3.096;2022-09-29T10:38:49;1.35;;;0.60;;
66163;SDS011;52962;51.088;3.096;2022-09-29T10:41:18;1.90;;;0.47;;
66163;SDS011;52962;51.088;3.096;2022-09-29T10:46:34;4.63;;;1.65;;
66163;SDS011;52962;51.088;3.096;2022-09-29T10:49:07;3.30;;;0.85;;
66163;SDS011;52962;51.088;3.096;2022-09-29T10:51:36;0.60;;;0.60;;
66163;SDS011;52962;51.088;3.096;2022-09-29T10:54:06;12.23;;;11.77;;
66163;SDS011;52962;51.088;3.096;2022-09-29T10:56:35;0.40;;;0.40;;
66163;SDS011;52962;51.088;3.096;2022-09-29T11:01:33;0.75;;;0.75;;
66163;SDS011;52962;51.088;3.096;2022-09-29T11:04:14;0.10;;;0.10;;
66163;SDS011;52962;51.088;3.096;2022-09-29T11:06:46;0.10;;;0.10;;
66163;SDS011;52962;51.088;3.096;2022-09-29T11:09:25;5.57;;;5.40;;
66163;SDS011;52962;51.088;3.096;2022-09-29T11:11:56;6.72;;;6.53;;
66163;SDS011;52962;51.088;3.096;2022-09-29T11:14:31;18.77;;;18.13;;
66163;SDS011;52962;51.088;3.096;2022-09-29T11:17:19;0.20;;;0.20;;
66163;SDS011;52962;51.088;3.096;2022-09-29T11:22:19;0.20;;;0.20;;
66163;SDS011;52962;51.088;3.096;2022-09-29T11:25:17;0.30;;;0.30;;
66163;SDS011;52962;51.088;3.096;2022-09-29T11:27:53;0.20;;;0.20;;
66163;SDS011;52962;51.088;3.096;2022-09-29T11:30:39;0.20;;;0.20;;
66163;SDS011;52962;51.088;3.096;2022-09-29T11:33:18;0.10;;;0.10;;
66163;SDS011;52962;51.088;3.096;2022-09-29T11:35:57;0.20;;;0.20;;
66163;SDS011;52962;51.088;3.096;2022-09-29T11:38:34;0.30;;;0.30;;
66163;SDS011;52962;51.088;3.096;2022-09-29T11:44:14;0.00;;;0.00;;
66163;SDS011;52962;51.088;3.096;2022-09-29T11:47:00;0.30;;;0.30;;
66163;SDS011;52962;51.088;3.096;2022-09-29T11:49:37;0.17;;;0.17;;
66163;SDS011;52962;51.088;3.096;2022-09-29T11:52:23;0.10;;;0.10;;
66163;SDS011;52962;51.088;3.096;2022-09-29T11:55:11;0.10;;;0.10;;
66163;SDS011;52962;51.088;3.096;2022-09-29T11:57:54;0.10;;;0.10;;
66163;SDS011;52962;51.088;3.096;2022-09-29T12:00:35;0.00;;;0.00;;
66163;SDS011;52962;51.088;3.096;2022-09-29T12:03:25;0.30;;;0.30;;
66163;SDS011;52962;51.088;3.096;2022-09-29T12:06:07;0.10;;;0.10;;
66163;SDS011;52962;51.088;3.096;2022-09-29T12:08:54;0.03;;;0.03;;
66163;SDS011;52962;51.088;3.096;2022-09-29T12:11:36;0.10;;;0.10;;
66163;SDS011;52962;51.088;3.096;2022-09-29T12:14:30;0.47;;;0.47;;
66163;SDS011;52962;51.088;3.096;2022-09-29T12:17:08;0.10;;;0.10;;
66163;SDS011;52962;51.088;3.096;2022-09-29T12:19:42;0.10;;;0.10;;
66163;SDS011;52962;51.088;3.096;2022-09-29T12:22:13;0.20;;;0.20;;
66163;SDS011;52962;51.088;3.096;2022-09-29T12:24:45;0.10;;;0.10;;
66163;SDS011;52962;51.088;3.096;2022-09-29T12:27:17;0.17;;;0.17;;
66163;SDS011;52962;51.088;3.096;2022-09-29T12:29:49;0.20;;;0.20;;
66163;SDS011;52962;51.088;3.096;2022-09-29T12:32:23;0.10;;;0.10;;
66163;SDS011;52962;51.088;3.096;2022-09-29T12:34:56;0.40;;;0.40;;
66163;SDS011;52962;51.088;3.096;2022-09-29T12:37:30;0.20;;;0.20;;
66163;SDS011;52962;51.088;3.096;2022-09-29T12:40:04;0.30;;;0.30;;
66163;SDS011;52962;51.088;3.096;2022-09-29T12:42:39;0.20;;;0.20;;
66163;SDS011;52962;51.088;3.096;2022-09-29T12:47:53;0.20;;;0.20;;
66163;SDS011;52962;51.088;3.096;2022-09-29T12:50:27;0.73;;;0.73;;
66163;SDS011;52962;51.088;3.096;2022-09-29T12:52:59;0.20;;;0.20;;
66163;SDS011;52962;51.088;3.096;2022-09-29T12:55:38;0.32;;;0.32;;
66163;SDS011;52962;51.088;3.096;2022-09-29T12:58:14;0.20;;;0.20;;
66163;SDS011;52962;51.088;3.096;2022-09-29T13:00:48;0.30;;;0.30;;
66163;SDS011;52962;51.088;3.096;2022-09-29T13:03:31;0.32;;;0.32;;
66163;SDS011;52962;51.088;3.096;2022-09-29T13:06:25;0.20;;;0.20;;
66163;SDS011;52962;51.088;3.096;2022-09-29T13:09:07;0.10;;;0.10;;
66163;SDS011;52962;51.088;3.096;2022-09-29T13:11:54;0.20;;;0.20;;
66163;SDS011;52962;51.088;3.096;2022-09-29T13:17:28;0.40;;;0.40;;
66163;SDS011;52962;51.088;3.096;2022-09-29T13:20:20;0.10;;;0.10;;
66163;SDS011;52962;51.088;3.096;2022-09-29T13:26:14;0.20;;;0.20;;
66163;SDS011;52962;51.088;3.096;2022-09-29T13:28:54;2.67;;;2.60;;
66163;SDS011;52962;51.088;3.096;2022-09-29T13:31:28;0.30;;;0.30;;
66163;SDS011;52962;51.088;3.096;2022-09-29T13:34:02;0.40;;;0.40;;
66163;SDS011;52962;51.088;3.096;2022-09-29T13:36:31;0.40;;;0.40;;
66163;SDS011;52962;51.088;3.096;2022-09-29T13:39:04;0.32;;;0.32;;
66163;SDS011;52962;51.088;3.096;2022-09-29T13:41:35;0.20;;;0.20;;
66163;SDS011;52962;51.088;3.096;2022-09-29T13:46:52;1999.90;;;999.90;;
66163;SDS011;52962;51.088;3.096;2022-09-29T13:49:25;2.13;;;2.13;;
66163;SDS011;52962;51.088;3.096;2022-09-29T13:51:59;1.02;;;1.02;;
66163;SDS011;52962;51.088;3.096;2022-09-29T13:54:37;0.50;;;0.50;;
66163;SDS011;52962;51.088;3.096;2022-09-29T14:11:22;12.65;;;12.13;;
66163;SDS011;52962;51.088;3.096;2022-09-29T14:13:56;1.83;;;0.47;;
66163;SDS011;52962;51.088;3.096;2022-09-29T14:16:30;0.13;;;0.13;;
66163;SDS011;52962;51.088;3.096;2022-09-29T14:19:19;3.47;;;3.38;;
66163;SDS011;52962;51.088;3.096;2022-09-29T14:25:23;1.60;;;1.60;;
66163;SDS011;52962;51.088;3.096;2022-09-29T14:28:00;2.95;;;2.85;;
66163;SDS011;52962;51.088;3.096;2022-09-29T14:30:39;4.97;;;4.55;;
66163;SDS011;52962;51.088;3.096;2022-09-29T14:33:10;0.10;;;0.10;;
66163;SDS011;52962;51.088;3.096;2022-09-29T14:35:42;0.00;;;0.00;;
66163;SDS011;52962;51.088;3.096;2022-09-29T14:38:13;0.00;;;0.00;;
66163;SDS011;52962;51.088;3.096;2022-09-29T14:40:53;0.00;;;0.00;;
66163;SDS011;52962;51.088;3.096;2022-09-29T14:43:25;0.00;;;0.00;;
66163;SDS011;52962;51.088;3.096;2022-09-29T14:49:37;5.20;;;5.00;;
66163;SDS011;52962;51.088;3.096;2022-09-29T14:52:39;0.00;;;0.00;;
66163;SDS011;52962;51.088;3.096;2022-09-29T14:55:19;2.67;;;2.50;;
66163;SDS011;52962;51.088;3.096;2022-09-29T14:58:05;7.70;;;7.00;;
66163;SDS011;52962;51.088;3.096;2022-09-29T15:00:49;0.00;;;0.00;;
66163;SDS011;52962;51.088;3.096;2022-09-29T15:03:28;1514.10;;;762.78;;
66163;SDS011;52962;51.088;3.096;2022-09-29T15:06:04;214.73;;;91.72;;
66163;SDS011;52962;51.088;3.096;2022-09-29T15:08:38;658.33;;;358.02;;
66163;SDS011;52962;51.088;3.096;2022-09-29T15:11:26;1999.90;;;999.90;;
66163;SDS011;52962;51.088;3.096;2022-09-29T15:13:56;25.13;;;18.10;;
66163;SDS011;52962;51.088;3.096;2022-09-29T15:16:28;0.77;;;0.40;;
66163;SDS011;52962;51.088;3.096;2022-09-29T15:19:12;0.60;;;0.50;;
66163;SDS011;52962;51.088;3.096;2022-09-29T15:21:54;0.73;;;0.30;;
66163;SDS011;52962;51.088;3.096;2022-09-29T15:24:43;0.73;;;0.30;;
66163;SDS011;52962;51.088;3.096;2022-09-29T15:27:35;0.32;;;0.20;;
66163;SDS011;52962;51.088;3.096;2022-09-29T15:30:11;0.30;;;0.30;;
66163;SDS011;52962;51.088;3.096;2022-09-29T15:32:44;0.20;;;0.20;;
66163;SDS011;52962;51.088;3.096;2022-09-29T15:35:15;0.20;;;0.15;;
66163;SDS011;52962;51.088;3.096;2022-09-29T15:37:53;0.40;;;0.10;;
66163;SDS011;52962;51.088;3.096;2022-09-29T15:40:24;0.10;;;0.10;;
66163;SDS011;52962;51.088;3.096;2022-09-29T15:42:53;0.20;;;0.20;;
66163;SDS011;52962;51.088;3.096;2022-09-29T15:45:23;38.03;;;32.78;;
66163;SDS011;52962;51.088;3.096;2022-09-29T15:48:00;0.30;;;0.30;;
66163;SDS011;52962;51.088;3.096;2022-09-29T15:50:31;0.10;;;0.10;;
66163;SDS011;52962;51.088;3.096;2022-09-29T15:53:07;0.63;;;0.63;;
66163;SDS011;52962;51.088;3.096;2022-09-29T15:55:37;1999.90;;;999.90;;
66163;SDS011;52962;51.088;3.096;2022-09-29T15:58:32;1999.90;;;999.90;;
66163;SDS011;52962;51.088;3.096;2022-09-29T16:01:03;1999.90;;;999.90;;
66163;SDS011;52962;51.088;3.096;2022-09-29T16:03:36;1999.90;;;999.90;;
66163;SDS011;52962;51.088;3.096;2022-09-29T16:06:13;1999.90;;;999.90;;
66163;SDS011;52962;51.088;3.096;2022-09-29T16:08:47;1999.90;;;999.90;;
66163;SDS011;52962;51.088;3.096;2022-09-29T16:11:21;1999.90;;;999.90;;
66163;SDS011;52962;51.088;3.096;2022-09-29T16:13:52;1999.90;;;999.90;;
66163;SDS011;52962;51.088;3.096;2022-09-29T16:16:29;1999.90;;;999.90;;
66163;SDS011;52962;51.088;3.096;2022-09-29T16:19:10;1999.90;;;999.90;;
66163;SDS011;52962;51.088;3.096;2022-09-29T16:21:41;1999.90;;;999.90;;
66163;SDS011;52962;51.088;3.096;2022-09-29T16:26:44;1999.90;;;999.90;;
66163;SDS011;52962;51.088;3.096;2022-09-29T16:29:27;1999.90;;;999.90;;
66163;SDS011;52962;51.088;3.096;2022-09-29T16:31:58;1999.90;;;999.90;;
66163;SDS011;52962;51.088;3.096;2022-09-29T16:34:31;1999.90;;;999.90;;
66163;SDS011;52962;51.088;3.096;2022-09-29T16:36:59;1999.90;;;999.90;;